Time;durP1;ratioP1;P1;durP2;ratioP2;P2;SDS_P1;SDS_P2;PMS_P1;PMS_P2;Temp;Humidity;BMP_temperature;BMP_pressure;BME280_temperature;BME280_humidity;BME280_pressure;Samples;Min_cycle;Max_cycle;Signal;HPM_P1;HPM_P2
2022/07/22 00:00:13;;;;;;;12.40;2.58;;;14.40;99.90;;;;;;5094934;28;20452;-86
2022/07/22 00:02:40;;;;;;;11.93;2.63;;;14.30;99.90;;;;;;5094860;28;20407;-86
2022/07/22 00:05:10;;;;;;;10.00;2.53;;;14.30;99.90;;;;;;5094338;28;20495;-85
2022/07/22 00:07:38;;;;;;;9.98;2.90;;;14.20;99.90;;;;;;5094428;28;20398;-85
2022/07/22 00:10:06;;;;;;;9.05;2.65;;;14.10;99.90;;;;;;5094322;28;20376;-85
2022/07/22 00:12:34;;;;;;;7.88;2.63;;;14.10;99.90;;;;;;5094384;28;20766;-85
2022/07/22 00:15:01;;;;;;;8.80;2.90;;;14.10;99.90;;;;;;5094187;28;20384;-85
2022/07/22 00:17:28;;;;;;;6.75;2.40;;;14.20;99.90;;;;;;5094214;28;20376;-85
2022/07/22 00:19:55;;;;;;;10.32;2.67;;;14.40;99.90;;;;;;5094331;28;20856;-84
2022/07/22 00:22:22;;;;;;;10.25;2.30;;;14.50;99.90;;;;;;5094487;28;20373;-85
2022/07/22 00:24:49;;;;;;;7.37;2.40;;;14.70;99.90;;;;;;5094022;28;20388;-86
2022/07/22 00:27:17;;;;;;;9.25;2.33;;;14.80;99.90;;;;;;5093903;28;20760;-85
2022/07/22 00:29:44;;;;;;;9.50;2.90;;;15.00;99.90;;;;;;5093998;28;20442;-84
2022/07/22 00:32:11;;;;;;;9.27;2.72;;;15.00;99.90;;;;;;5093952;28;20379;-85
2022/07/22 00:34:38;;;;;;;9.55;2.70;;;15.00;99.90;;;;;;5094029;28;20377;-84
2022/07/22 00:37:06;;;;;;;9.37;2.80;;;14.90;99.90;;;;;;5093454;28;20373;-84
2022/07/22 00:39:33;;;;;;;9.10;2.50;;;14.70;99.90;;;;;;5093713;28;20385;-84
2022/07/22 00:42:01;;;;;;;7.63;2.72;;;14.60;99.90;;;;;;5093774;28;20450;-85
2022/07/22 00:44:28;;;;;;;8.30;4.40;;;14.50;99.90;;;;;;5093469;28;20496;-85
2022/07/22 00:46:55;;;;;;;9.00;4.25;;;14.40;99.90;;;;;;5094041;28;20391;-85
2022/07/22 00:49:22;;;;;;;9.52;3.38;;;14.30;99.90;;;;;;5093496;28;20887;-85
2022/07/22 00:51:49;;;;;;;7.90;2.50;;;14.40;99.90;;;;;;5092200;28;20372;-85
2022/07/22 00:54:17;;;;;;;8.15;2.20;;;14.60;99.90;;;;;;5092075;28;20383;-84
2022/07/22 00:56:45;;;;;;;7.90;2.43;;;14.80;99.90;;;;;;5093518;28;20804;-84
2022/07/22 00:59:12;;;;;;;8.98;2.03;;;15.00;99.90;;;;;;5093408;28;20922;-85
2022/07/22 01:01:40;;;;;;;7.20;1.90;;;15.30;99.90;;;;;;5093343;28;20394;-85
2022/07/22 01:04:07;;;;;;;7.38;2.03;;;15.50;99.90;;;;;;5093154;28;20425;-85
2022/07/22 01:06:35;;;;;;;7.35;1.95;;;15.80;99.90;;;;;;5093216;28;20869;-84
2022/07/22 01:09:02;;;;;;;6.90;1.65;;;;;;;;;;5093071;28;20392;-85
2022/07/22 01:11:29;;;;;;;6.47;1.65;;;15.80;99.90;;;;;;5091812;28;20411;-86
2022/07/22 01:13:57;;;;;;;7.40;1.60;;;;;;;;;;5092994;28;20371;-84
2022/07/22 01:16:25;;;;;;;8.40;1.65;;;15.60;99.90;;;;;;5092944;28;20368;-86
2022/07/22 01:18:52;;;;;;;8.90;2.00;;;;;;;;;;5092949;28;20372;-85
2022/07/22 01:21:19;;;;;;;11.77;2.07;;;;;;;;;;5092864;28;21010;-87
2022/07/22 01:23:46;;;;;;;7.65;2.10;;;15.20;99.90;;;;;;5091340;28;20408;-88
2022/07/22 01:26:17;;;;;;;8.10;2.13;;;15.00;99.90;;;;;;5092724;28;20934;-88
2022/07/22 01:28:44;;;;;;;7.47;1.90;;;15.30;99.90;;;;;;5092749;28;20693;-88
2022/07/22 01:31:11;;;;;;;8.48;1.70;;;15.50;99.90;;;;;;5091454;28;20380;-87
2022/07/22 01:33:38;;;;;;;10.70;1.80;;;15.70;99.90;;;;;;5093255;28;20360;-85
2022/07/22 01:36:06;;;;;;;8.83;1.60;;;;;;;;;;5093524;28;20373;-85
2022/07/22 01:38:33;;;;;;;6.50;1.70;;;16.00;99.90;;;;;;5092789;28;20384;-88
2022/07/22 01:41:00;;;;;;;7.30;1.70;;;;;;;;;;5092801;28;20464;-87
2022/07/22 01:43:27;;;;;;;5.65;1.27;;;;;;;;;;5093586;28;20368;-89
2022/07/22 01:45:54;;;;;;;7.25;1.40;;;;;;;;;;5093022;28;20404;-85
2022/07/22 01:48:22;;;;;;;6.97;1.42;;;;;;;;;;5091460;28;20772;-84
2022/07/22 01:50:49;;;;;;;6.18;1.40;;;;;;;;;;5094475;28;20459;-86
2022/07/22 01:53:16;;;;;;;6.28;1.40;;;;;;;;;;5092613;28;20368;-86
2022/07/22 01:55:43;;;;;;;8.27;1.80;;;;;;;;;;5092903;28;20437;-85
2022/07/22 01:58:10;;;;;;;8.88;1.60;;;;;;;;;;5092447;28;20392;-85
2022/07/22 02:00:38;;;;;;;4.93;1.33;;;16.30;99.90;;;;;;5092643;28;20383;-85
2022/07/22 02:03:05;;;;;;;9.75;1.73;;;17.70;99.90;;;;;;5092684;28;20373;-85
2022/07/22 02:05:33;;;;;;;6.97;1.77;;;17.40;99.90;;;;;;5092638;28;20403;-86
2022/07/22 02:08:10;;;;;;;9.65;1.70;;;17.00;99.90;;;;;;5092404;28;20760;-85
2022/07/22 02:10:38;;;;;;;6.28;1.52;;;16.50;99.90;;;;;;5092829;28;20459;-83
2022/07/22 02:13:05;;;;;;;9.32;1.63;;;16.20;99.90;;;;;;5092880;28;20373;-85
2022/07/22 02:15:33;;;;;;;8.20;1.70;;;16.00;99.90;;;;;;5092458;28;20372;-86
2022/07/22 02:18:13;;;;;;;7.40;1.70;;;15.90;99.90;;;;;;5096259;28;20372;-85
2022/07/22 02:20:40;;;;;;;9.60;1.73;;;15.90;99.90;;;;;;5095199;28;20368;-90
2022/07/22 02:23:08;;;;;;;6.75;1.45;;;16.00;99.90;;;;;;5093079;28;20863;-84
2022/07/22 02:25:35;;;;;;;7.10;1.60;;;;;;;;;;5092534;28;20411;-86
2022/07/22 02:28:02;;;;;;;7.63;1.60;;;;;;;;;;5092490;28;20364;-85
2022/07/22 02:30:30;;;;;;;7.90;1.80;;;16.40;99.90;;;;;;5092350;28;20867;-85
2022/07/22 02:32:58;;;;;;;6.82;1.90;;;17.10;99.90;;;;;;5092134;28;20372;-86
2022/07/22 02:35:25;;;;;;;8.73;1.65;;;17.00;99.90;;;;;;5091992;28;20451;-84
2022/07/22 02:37:52;;;;;;;7.35;1.50;;;16.90;99.90;;;;;;5092129;28;20391;-83
2022/07/22 02:40:19;;;;;;;8.38;1.73;;;;;;;;;;5092125;28;20485;-85
2022/07/22 02:42:46;;;;;;;6.88;1.70;;;16.80;99.90;;;;;;5091955;28;20367;-86
2022/07/22 02:45:14;;;;;;;9.20;1.90;;;16.50;99.90;;;;;;5092035;28;20487;-84
2022/07/22 02:47:52;;;;;;;9.38;1.80;;;16.40;99.90;;;;;;5092203;28;20452;-84
2022/07/22 02:50:20;;;;;;;8.17;2.00;;;16.30;99.90;;;;;;5092303;28;20933;-84
2022/07/22 02:52:47;;;;;;;11.37;1.80;;;16.30;99.90;;;;;;5091708;28;20376;-85
2022/07/22 02:55:15;;;;;;;10.18;2.40;;;16.30;99.90;;;;;;5092024;28;20438;-87
2022/07/22 02:57:42;;;;;;;10.80;1.80;;;16.30;99.90;;;;;;5091779;28;20379;-86
2022/07/22 03:00:12;;;;;;;9.20;1.55;;;16.30;99.90;;;;;;5092153;28;20456;-85
2022/07/22 03:02:40;;;;;;;9.63;1.60;;;16.50;99.90;;;;;;5095948;28;20828;-86
2022/07/22 03:05:08;;;;;;;6.07;1.38;;;16.80;99.90;;;;;;5095285;28;20384;-85
2022/07/22 03:07:35;;;;;;;6.88;1.30;;;17.20;99.90;;;;;;5095212;28;20419;-87
2022/07/22 03:10:03;;;;;;;6.17;1.40;;;17.40;99.90;;;;;;5095519;28;20360;-85
2022/07/22 03:12:30;;;;;;;6.68;1.60;;;;;;;;;;5095513;28;20372;-85
2022/07/22 03:14:57;;;;;;;5.80;1.50;;;;;;;;;;5095183;28;20372;-87
2022/07/22 03:17:24;;;;;;;6.85;1.38;;;;;;;;;;5095447;28;20852;-85
2022/07/22 03:19:51;;;;;;;7.30;2.00;;;;;;;;;;5095343;28;20456;-86
2022/07/22 03:22:18;;;;;;;10.27;1.90;;;;;;;;;;5093726;28;20732;-84
2022/07/22 03:24:45;;;;;;;7.40;1.47;;;;;;;;;;5095331;28;20737;-86
2022/07/22 03:27:12;;;;;;;8.30;1.67;;;;;;;;;;5095393;28;20422;-86
2022/07/22 03:29:39;;;;;;;5.93;1.50;;;;;;;;;;5093858;28;20932;-86
2022/07/22 03:32:06;;;;;;;5.73;1.40;;;;;;;;;;5093587;28;20373;-86
2022/07/22 03:34:33;;;;;;;6.30;1.30;;;;;;;;;;5094829;28;20380;-85
2022/07/22 03:37:00;;;;;;;6.77;1.20;;;;;;;;;;5094813;28;20379;-86
2022/07/22 03:39:27;;;;;;;6.23;1.27;;;;;;;;;;5095110;28;20368;-87
2022/07/22 03:41:54;;;;;;;7.80;1.30;;;;;;;;;;5094820;28;20376;-86
2022/07/22 03:44:21;;;;;;;7.33;1.60;;;;;;;;;;5094951;28;20384;-87
2022/07/22 03:46:48;;;;;;;7.28;1.40;;;;;;;;;;5094951;28;20901;-86
2022/07/22 03:49:15;;;;;;;7.15;1.40;;;;;;;;;;5094981;28;20372;-86
2022/07/22 03:51:42;;;;;;;5.25;1.30;;;;;;;;;;5094855;28;20369;-87
2022/07/22 03:54:10;;;;;;;6.13;1.10;;;;;;;;;;5093233;28;20392;-86
2022/07/22 03:56:37;;;;;;;4.40;1.10;;;;;;;;;;5094863;28;20452;-86
2022/07/22 03:59:04;;;;;;;4.57;1.10;;;;;;;;;;5094647;28;20384;-89
2022/07/22 04:01:31;;;;;;;3.90;0.90;;;;;;;;;;5094849;28;20404;-87
2022/07/22 04:03:58;;;;;;;2.95;0.90;;;;;;;;;;5094604;28;20501;-87
2022/07/22 04:06:25;;;;;;;4.40;0.90;;;;;;;;;;5094707;28;20442;-87
2022/07/22 04:08:52;;;;;;;2.05;0.80;;;;;;;;;;5094407;28;20364;-89
2022/07/22 04:11:19;;;;;;;3.15;0.90;;;;;;;;;;5094506;28;20394;-88
2022/07/22 04:13:46;;;;;;;3.92;0.82;;;;;;;;;;5093870;28;20393;-88
2022/07/22 04:16:13;;;;;;;4.85;1.02;;;;;;;;;;5094482;28;20380;-86
2022/07/22 04:18:40;;;;;;;3.67;0.90;;;;;;;;;;5094482;28;20744;-87
2022/07/22 04:21:07;;;;;;;5.82;1.27;;;;;;;;;;5094390;28;20427;-86
2022/07/22 04:23:34;;;;;;;6.35;1.50;;;;;;;;;;5094046;28;20368;-86
2022/07/22 04:26:01;;;;;;;3.95;1.05;;;;;;;;;;5094333;28;20545;-85
2022/07/22 04:28:28;;;;;;;5.15;1.17;;;;;;;;;;5094132;28;20371;-86
2022/07/22 04:30:55;;;;;;;3.00;1.20;;;;;;;;;;5094100;28;20449;-86
2022/07/22 04:33:22;;;;;;;3.55;1.05;;;;;;;;;;5093977;28;20371;-87
2022/07/22 04:35:49;;;;;;;3.50;1.05;;;;;;;;;;5094281;28;20368;-86
2022/07/22 04:38:17;;;;;;;4.70;1.15;;;;;;;;;;5093675;28;20392;-87
2022/07/22 04:40:44;;;;;;;6.63;1.30;;;;;;;;;;5093772;28;20379;-86
2022/07/22 04:43:11;;;;;;;5.13;1.20;;;;;;;;;;5093990;28;20852;-86
2022/07/22 04:45:38;;;;;;;4.70;1.10;;;;;;;;;;5094099;28;20404;-90
2022/07/22 04:48:05;;;;;;;5.22;1.30;;;;;;;;;;5093653;28;20369;-88
2022/07/22 04:50:32;;;;;;;4.63;1.30;;;;;;;;;;5093849;28;20393;-87
2022/07/22 04:52:59;;;;;;;6.72;1.40;;;;;;;;;;5093784;28;20365;-88
2022/07/22 04:55:26;;;;;;;5.97;1.50;;;;;;;;;;5093325;28;20442;-88
2022/07/22 04:57:53;;;;;;;5.50;1.50;;;;;;;;;;5093763;28;20365;-88
2022/07/22 05:00:20;;;;;;;5.63;1.30;;;;;;;;;;5093558;28;20371;-83
2022/07/22 05:02:47;;;;;;;8.02;1.65;;;;;;;;;;5093398;28;20443;-85
2022/07/22 05:05:15;;;;;;;5.50;1.30;;;;;;;;;;5092220;28;20491;-83
2022/07/22 05:07:42;;;;;;;4.43;1.20;;;;;;;;;;5093108;28;20376;-85
2022/07/22 05:10:09;;;;;;;6.20;1.30;;;;;;;;;;5093377;28;20848;-84
2022/07/22 05:12:36;;;;;;;4.85;1.40;;;;;;;;;;5092999;28;20378;-86
2022/07/22 05:15:04;;;;;;;7.32;1.30;;;;;;;;;;5092931;28;20856;-84
2022/07/22 05:17:31;;;;;;;8.93;1.80;;;;;;;;;;5092857;28;20392;-89
2022/07/22 05:19:58;;;;;;;6.70;1.40;;;;;;;;;;5092796;28;20483;-85
2022/07/22 05:22:26;;;;;;;6.10;1.50;;;;;;;;;;5093001;28;20479;-81
2022/07/22 05:24:53;;;;;;;5.07;1.38;;;17.50;99.90;;;;;;5092543;28;20388;-83
2022/07/22 05:27:20;;;;;;;4.88;1.40;;;15.20;99.90;;;;;;5092874;28;20380;-85
2022/07/22 05:29:47;;;;;;;6.82;1.45;;;15.00;99.90;;;;;;5093934;28;20883;-87
2022/07/22 05:32:15;;;;;;;4.37;1.30;;;14.90;99.90;;;;;;5092957;28;20380;-82
2022/07/22 05:34:42;;;;;;;6.20;1.27;;;14.70;99.90;;;;;;5094305;28;20809;-82
2022/07/22 05:37:09;;;;;;;5.75;1.20;;;14.60;99.90;;;;;;5096939;28;20430;-82
2022/07/22 05:39:36;;;;;;;7.20;1.60;;;14.50;99.90;;;;;;5095545;28;20853;-78
2022/07/22 05:42:04;;;;;;;5.22;1.40;;;14.40;99.90;;;;;;5093304;28;20529;-83
2022/07/22 05:44:31;;;;;;;6.40;1.47;;;14.30;99.90;;;;;;5092845;28;20890;-83
2022/07/22 05:46:58;;;;;;;7.63;1.80;;;14.30;99.90;;;;;;5092900;28;20371;-86
2022/07/22 05:49:26;;;;;;;10.77;4.10;;;14.30;99.90;;;;;;5092544;28;20391;-82
2022/07/22 05:51:54;;;;;;;10.88;4.10;;;14.30;99.90;;;;;;5092467;28;20880;-82
2022/07/22 05:54:21;;;;;;;7.85;2.47;;;14.40;99.90;;;;;;5092413;28;20384;-82
2022/07/22 05:56:48;;;;;;;8.70;2.05;;;14.40;99.90;;;;;;5092462;28;20705;-85
2022/07/22 05:59:16;;;;;;;7.50;1.83;;;14.40;99.90;;;;;;5092423;28;20439;-81
2022/07/22 06:01:43;;;;;;;7.82;1.83;;;14.50;99.90;;;;;;5094401;28;20455;-84
2022/07/22 06:04:10;;;;;;;8.10;2.83;;;14.40;99.90;;;;;;5092161;28;20387;-83
2022/07/22 06:06:37;;;;;;;8.83;2.30;;;14.50;99.90;;;;;;5092291;28;20372;-83
2022/07/22 06:09:04;;;;;;;7.10;1.85;;;;;;;;;;5092458;28;20365;-82
2022/07/22 06:11:31;;;;;;;8.23;2.00;;;;;;;;;;5092376;28;20404;-82
2022/07/22 06:13:58;;;;;;;7.82;2.08;;;;;;;;;;5092147;28;20364;-84
2022/07/22 06:16:25;;;;;;;7.78;1.90;;;;;;;;;;5092125;28;20377;-86
2022/07/22 06:18:52;;;;;;;9.25;2.10;;;;;;;;;;5092401;28;20372;-87
2022/07/22 06:21:19;;;;;;;9.13;2.03;;;;;;;;;;5092169;28;20372;-79
2022/07/22 06:23:46;;;;;;;8.35;1.90;;;;;;;;;;5092010;28;20844;-81
2022/07/22 06:26:13;;;;;;;9.15;2.05;;;;;;;;;;5092386;28;20399;-84
2022/07/22 06:28:40;;;;;;;10.33;2.33;;;;;;;;;;5092307;28;20449;-84
2022/07/22 06:31:07;;;;;;;10.70;2.53;;;;;;;;;;5092040;28;20452;-81
2022/07/22 06:33:34;;;;;;;10.15;2.30;;;;;;;;;;5092140;28;20705;-85
2022/07/22 06:36:02;;;;;;;9.95;2.00;;;;;;;;;;5093976;28;20360;-83
2022/07/22 06:38:29;;;;;;;10.25;1.70;;;;;;;;;;5095915;28;20396;-85
2022/07/22 06:40:56;;;;;;;9.77;2.28;;;;;;;;;;5096241;28;20382;-82
2022/07/22 06:43:23;;;;;;;12.07;2.40;;;;;;;;;;5095931;28;20442;-82
2022/07/22 06:45:50;;;;;;;8.27;2.15;;;;;;;;;;5095769;28;20441;-82
2022/07/22 06:48:17;;;;;;;11.98;2.70;;;;;;;;;;5095849;28;20365;-81
2022/07/22 06:50:44;;;;;;;18.42;3.35;;;;;;;;;;5096074;28;20436;-83
2022/07/22 06:53:11;;;;;;;15.40;2.67;;;;;;;;;;5095719;28;20372;-81
2022/07/22 06:55:38;;;;;;;8.45;2.22;;;;;;;;;;5095919;28;20368;-83
2022/07/22 06:58:05;;;;;;;8.80;2.20;;;;;;;;;;5095845;28;20376;-83
2022/07/22 07:00:32;;;;;;;8.52;2.00;;;;;;;;;;5095504;28;20414;-82
2022/07/22 07:03:00;;;;;;;8.73;2.08;;;;;;;;;;5095443;28;20780;-82
2022/07/22 07:05:28;;;;;;;11.60;2.20;;;;;;;;;;5095347;28;20466;-81
2022/07/22 07:07:56;;;;;;;9.00;2.33;;;;;;;;;;5095170;28;20422;-81
2022/07/22 07:10:23;;;;;;;12.27;2.67;;;;;;;;;;5095282;28;20860;-82
2022/07/22 07:12:50;;;;;;;7.93;2.33;;;;;;;;;;5095540;28;20858;-87
2022/07/22 07:15:17;;;;;;;8.23;2.10;;;;;;;;;;5095172;28;20383;-85
2022/07/22 07:17:44;;;;;;;10.13;2.30;;;;;;;;;;5095322;28;20368;-82
2022/07/22 07:20:11;;;;;;;8.63;2.05;;;;;;;;;;5095250;28;20365;-82
2022/07/22 07:22:38;;;;;;;11.15;2.38;;;;;;;;;;5095243;28;20364;-82
2022/07/22 07:25:06;;;;;;;8.30;2.17;;;;;;;;;;5095117;28;20428;-83
2022/07/22 07:27:33;;;;;;;8.60;2.00;;;;;;;;;;5095033;28;20433;-85
2022/07/22 07:30:00;;;;;;;10.75;2.25;;;;;;;;;;5095309;28;20368;-84
2022/07/22 07:32:27;;;;;;;8.20;2.97;;;;;;;;;;5095099;28;20932;-82
2022/07/22 07:34:55;;;;;;;8.43;2.60;;;;;;;;;;5094871;28;20369;-83
2022/07/22 07:37:22;;;;;;;9.25;2.60;;;;;;;;;;5094893;28;20381;-83
2022/07/22 07:39:49;;;;;;;10.32;3.10;;;;;;;;;;5095345;28;20389;-84
2022/07/22 07:42:16;;;;;;;11.63;2.72;;;;;;;;;;5094960;28;20376;-85
2022/07/22 07:44:43;;;;;;;8.68;2.70;;;;;;;;;;5094565;28;20466;-82
2022/07/22 07:47:10;;;;;;;10.88;2.40;;;;;;;;;;5093660;28;20853;-84
2022/07/22 07:49:37;;;;;;;10.57;2.30;;;;;;;;;;5094755;28;20356;-82
2022/07/22 07:52:04;;;;;;;10.68;2.20;;;;;;;;;;5094588;28;20372;-82
2022/07/22 07:54:31;;;;;;;12.90;2.55;;;;;;;;;;5094787;28;20391;-83
2022/07/22 07:56:58;;;;;;;11.57;2.50;;;;;;;;;;5095086;28;20364;-85
2022/07/22 07:59:25;;;;;;;12.90;3.35;;;;;;;;;;5094848;28;20879;-85
2022/07/22 08:01:52;;;;;;;11.90;3.30;;;;;;;;;;5094799;28;20372;-81
2022/07/22 08:04:19;;;;;;;12.57;3.00;;;;;;;;;;5094366;28;20403;-85
2022/07/22 08:06:46;;;;;;;12.77;2.55;;;;;;;;;;5095249;28;20423;-81
2022/07/22 08:09:13;;;;;;;12.75;2.72;;;;;;;;;;5094517;28;20443;-82
2022/07/22 08:11:40;;;;;;;14.70;3.40;;;;;;;;;;5095232;28;20876;-82
2022/07/22 08:14:07;;;;;;;12.87;3.30;;;;;;;;;;5094204;28;20365;-81
2022/07/22 08:16:34;;;;;;;14.80;5.40;;;;;;;;;;5094472;28;20455;-84
2022/07/22 08:19:01;;;;;;;18.73;6.65;;;;;;;;;;5094277;28;20369;-82
2022/07/22 08:21:28;;;;;;;15.02;6.32;;;;;;;;;;5094256;28;20373;-81
2022/07/22 08:23:55;;;;;;;17.13;4.88;;;;;;;;;;5094148;28;20502;-82
2022/07/22 08:26:22;;;;;;;17.38;4.53;;;;;;;;;;5094150;28;20479;-81
2022/07/22 08:28:49;;;;;;;16.15;3.88;;;;;;;;;;5094015;28;20369;-87
2022/07/22 08:31:16;;;;;;;14.90;3.40;;;;;;;;;;5093887;28;20411;-82
2022/07/22 08:33:43;;;;;;;9.13;2.70;;;;;;;;;;5094643;28;20709;-82
2022/07/22 08:36:10;;;;;;;12.40;2.90;;;;;;;;;;5093986;28;20547;-85
2022/07/22 08:38:38;;;;;;;12.55;2.90;;;;;;;;;;5094378;28;20837;-83
2022/07/22 08:41:05;;;;;;;9.15;2.25;;;;;;;;;;5094244;28;20369;-81
2022/07/22 08:43:35;;;;;;;10.70;2.60;;;;;;;;;;5094941;28;20809;-81
2022/07/22 08:46:02;;;;;;;8.20;2.30;;;;;;;;;;5095919;28;20512;-80
2022/07/22 08:48:31;;;;;;;11.73;2.35;;;;;;;;;;5097086;28;20884;-85
2022/07/22 08:50:58;;;;;;;9.45;2.10;;;;;;;;;;5095771;28;20368;-88
2022/07/22 08:53:25;;;;;;;9.23;2.50;;;;;;;;;;5095567;28;20365;-82
2022/07/22 08:55:52;;;;;;;11.30;2.30;;;;;;;;;;5094497;28;20441;-83
2022/07/22 08:58:19;;;;;;;8.55;2.22;;;;;;;;;;5093870;28;20451;-83
2022/07/22 09:00:46;;;;;;;12.02;2.28;;;;;;;;;;5094166;28;20461;-81
2022/07/22 09:03:23;;;;;;;8.27;2.00;;;;;;;;;;5094596;28;20513;-81
2022/07/22 09:05:51;;;;;;;11.95;2.20;;;;;;;;;;5093413;28;20410;-89
2022/07/22 09:08:19;;;;;;;10.02;2.28;;;;;;;;;;5094638;28;20370;-85
2022/07/22 09:10:46;;;;;;;8.30;2.10;;;;;;;;;;5094443;28;20766;-87
2022/07/22 09:13:15;;;;;;;10.27;2.30;;;;;;;;;;5093779;28;20682;-85
2022/07/22 09:15:54;;;;;;;8.60;2.10;;;14.50;99.90;;;;;;5094079;28;20360;-80
2022/07/22 09:18:22;;;;;;;10.38;2.45;;;12.80;99.90;;;;;;5094556;28;20381;-83
2022/07/22 09:20:54;;;;;;;8.05;2.20;;;12.70;99.90;;;;;;5093533;28;20716;-85
2022/07/22 09:23:22;;;;;;;10.57;2.25;;;12.70;99.90;;;;;;5093535;28;20368;-80
2022/07/22 09:25:49;;;;;;;10.23;2.20;;;12.70;99.90;;;;;;5093533;28;20392;-86
2022/07/22 09:28:21;;;;;;;11.20;2.53;;;12.70;99.90;;;;;;5093644;28;20390;-82
2022/07/22 09:30:52;;;;;;;9.55;2.50;;;;;;;;;;5093542;28;20374;-84
2022/07/22 09:33:20;;;;;;;11.38;3.03;;;;;;;;;;5092895;28;20716;-83
2022/07/22 09:35:47;;;;;;;10.30;3.05;;;;;;;;;;5092806;28;20375;-80
2022/07/22 09:38:15;;;;;;;12.00;4.85;;;;;;;;;;5093021;28;20397;-81
2022/07/22 09:40:44;;;;;;;13.25;7.15;;;;;;;;;;5093275;28;20372;-81
2022/07/22 09:43:12;;;;;;;10.50;4.75;;;;;;;;;;5093228;28;20449;-83
2022/07/22 09:45:59;;;;;;;7.95;3.20;;;;;;;;;;5091722;28;20424;-90
2022/07/22 09:48:27;;;;;;;7.85;2.13;;;;;;;;;;5093230;28;20360;-80
2022/07/22 09:50:56;;;;;;;7.22;1.73;;;;;;;;;;5093084;28;20384;-80
2022/07/22 09:53:24;;;;;;;5.85;1.63;;;;;;;;;;5093365;28;20449;-81
2022/07/22 09:55:51;;;;;;;6.28;1.60;;;;;;;;;;5093631;28;20365;-90
2022/07/22 09:58:18;;;;;;;6.60;1.50;;;;;;;;;;5093094;28;20387;-81
2022/07/22 10:00:46;;;;;;;4.70;1.40;;;;;;;;;;5095220;28;20361;-87
2022/07/22 10:03:15;;;;;;;4.43;1.30;;;;;;;;;;5093878;28;20394;-91
2022/07/22 10:05:44;;;;;;;5.13;2.38;;;;;;;;;;5094399;28;20400;-91
2022/07/22 10:08:11;;;;;;;5.90;3.45;;;;;;;;;;5095045;28;20360;-88
2022/07/22 10:10:39;;;;;;;11.15;7.53;;;;;;;;;;5096975;28;20371;-82
2022/07/22 10:13:07;;;;;;;9.43;7.85;;;;;;;;;;5095000;28;20375;-88
2022/07/22 10:15:35;;;;;;;10.63;9.18;;;;;;;;;;5094057;28;20876;-83
2022/07/22 10:18:04;;;;;;;14.50;9.90;;;;;;;;;;5092460;28;20794;-91
2022/07/22 10:20:32;;;;;;;13.00;9.43;;;;;;;;;;5076532;28;20364;-89
2022/07/22 10:23:09;;;;;;;13.02;9.40;;;;;;;;;;5092976;28;20726;-83
2022/07/22 10:25:52;;;;;;;12.52;10.93;;;;;;;;;;5094237;28;20497;-90
2022/07/22 10:28:24;;;;;;;20.20;17.13;;;;;;;;;;5093844;28;20373;-87
2022/07/22 10:30:51;;;;;;;21.00;17.45;;;;;;;;;;5093719;28;20355;-88
2022/07/22 10:33:19;;;;;;;26.67;22.00;;;;;;;;;;5094407;28;20372;-91
2022/07/22 10:36:02;;;;;;;25.05;22.27;;;;;;;;;;5093325;28;20405;-89
2022/07/22 10:38:31;;;;;;;22.40;20.05;;;;;;;;;;5093240;28;20388;-85
2022/07/22 10:41:09;;;;;;;27.67;22.90;;;;;;;;;;5093497;28;20361;-82
2022/07/22 10:43:36;;;;;;;22.75;18.05;;;;;;;;;;5093179;28;20371;-91
2022/07/22 10:46:06;;;;;;;18.35;13.38;;;;;;;;;;5093491;28;20764;-85
2022/07/22 10:48:39;;;;;;;20.70;15.03;;;;;;;;;;5092702;28;20384;-87
2022/07/22 10:51:10;;;;;;;10.38;6.45;;;;;;;;;;5092960;28;20399;-83
2022/07/22 10:53:45;;;;;;;9.10;4.57;;;;;;;;;;5093231;28;20368;-82
2022/07/22 10:56:31;;;;;;;7.22;3.08;;;;;;;;;;5093475;28;20436;-82
2022/07/22 10:58:59;;;;;;;10.45;5.90;;;;;;;;;;5092894;28;20396;-84
2022/07/22 11:01:28;;;;;;;13.38;6.60;;;;;;;;;;5093076;28;20421;-88
2022/07/22 11:03:56;;;;;;;10.38;4.80;;;;;;;;;;5092782;28;20361;-87
2022/07/22 11:06:26;;;;;;;9.98;5.20;;;;;;;;;;5093327;28;20432;-89
2022/07/22 11:09:04;;;;;;;12.83;6.13;;;;;;;;;;5093020;28;20393;-89
2022/07/22 11:11:35;;;;;;;14.00;5.87;;;;;;;;;;5092924;28;20505;-80
2022/07/22 11:14:02;;;;;;;12.30;6.25;;;;;;;;;;5092881;28;20365;-85
2022/07/22 11:16:30;;;;;;;11.27;5.90;;;;;;;;;;5093863;28;20467;-80
2022/07/22 11:19:02;;;;;;;12.73;6.55;;;;;;;;;;5093172;28;20856;-81
2022/07/22 11:21:30;;;;;;;12.93;6.15;;;;;;;;;;5094182;28;20348;-82
2022/07/22 11:23:59;;;;;;;16.52;8.13;;;;;;;;;;5096600;28;20372;-88
2022/07/22 11:26:32;;;;;;;15.67;8.53;;;;;;;;;;5096132;28;20884;-83
2022/07/22 11:29:00;;;;;;;15.82;8.95;;;;;;;;;;5096307;28;20360;-81
2022/07/22 11:31:27;;;;;;;16.65;9.48;;;;;;;;;;5095062;28;20372;-81
2022/07/22 11:34:04;;;;;;;16.05;6.07;;;;;;;;;;5095985;28;20368;-81
2022/07/22 11:36:33;;;;;;;10.10;5.93;;;;;;;;;;5096382;28;20360;-87
2022/07/22 11:39:00;;;;;;;12.15;5.70;;;;;;;;;;5095879;28;20388;-81
2022/07/22 11:41:29;;;;;;;11.95;6.00;;;;;;;;;;5096977;28;20832;-81
2022/07/22 11:43:58;;;;;;;14.73;9.27;;;;;;;;;;5097099;28;20425;-81
2022/07/22 11:46:25;;;;;;;11.52;7.10;;;;;;;;;;5098907;28;20495;-86
2022/07/22 11:48:53;;;;;;;13.55;5.50;;;;;;;;;;5100838;28;20841;-83
2022/07/22 11:51:20;;;;;;;12.13;5.97;;;;;;;;;;5097915;28;20505;-83
2022/07/22 11:53:47;;;;;;;12.68;6.60;;;;;;;;;;5097670;28;20852;-82
2022/07/22 11:56:14;;;;;;;13.55;7.15;;;;;;;;;;5096844;28;20367;-82
2022/07/22 11:58:46;;;;;;;15.00;8.25;;;;;;;;;;5096444;28;20376;-85
2022/07/22 12:01:14;;;;;;;15.60;8.37;;;;;;;;;;5096824;28;20396;-82
2022/07/22 12:03:45;;;;;;;18.35;9.50;;;;;;;;;;5096050;28;20858;-81
2022/07/22 12:06:13;;;;;;;16.77;8.30;;;;;;;;;;5094961;28;20431;-86
2022/07/22 12:08:44;;;;;;;19.27;10.75;;;;;;;;;;5095755;28;20372;-83
2022/07/22 12:11:12;;;;;;;20.50;10.93;;;;;;;;;;5095212;28;20702;-85
2022/07/22 12:13:49;;;;;;;18.30;11.07;;;;;;;;;;5095727;28;20360;-85
2022/07/22 12:16:22;;;;;;;19.33;12.50;;;;;;;;;;5095330;28;20364;-81
2022/07/22 12:18:57;;;;;;;25.10;12.18;;;;;;;;;;5095625;28;20361;-84
2022/07/22 12:21:25;;;;;;;21.27;12.68;;;;;;;;;;5096290;28;20388;-85
2022/07/22 12:23:53;;;;;;;19.40;12.85;;;;;;;;;;5095827;28;20387;-88
2022/07/22 12:26:20;;;;;;;21.95;13.50;;;;;;;;;;5096781;28;20876;-85
2022/07/22 12:28:47;;;;;;;23.10;14.50;;;;;;;;;;5095929;28;20357;-87
2022/07/22 12:31:14;;;;;;;22.23;14.75;;;;;;;;;;5094636;28;20904;-85
2022/07/22 12:33:48;;;;;;;21.45;15.23;;;;;;;;;;5094684;28;20380;-89
2022/07/22 12:36:15;;;;;;;21.63;15.18;;;;;;;;;;5095395;28;20399;-84
2022/07/22 12:38:42;;;;;;;25.80;16.52;;;;;;;;;;5095477;28;20745;-84
2022/07/22 12:41:29;;;;;;;23.80;15.70;;;;;;;;;;5095432;28;20361;-82
2022/07/22 12:43:56;;;;;;;23.75;16.35;;;;;;;;;;5094934;28;20364;-88
2022/07/22 12:46:23;;;;;;;23.60;15.77;;;;;;;;;;5103932;28;20400;-81
2022/07/22 12:48:59;;;;;;;20.97;15.97;;;;;;;;;;5108617;28;20390;-84
2022/07/22 12:51:26;;;;;;;23.27;17.40;;;;;;;;;;5109845;28;20448;-83
2022/07/22 12:53:58;;;;;;;23.05;15.85;;;;;;;;;;5110425;28;20412;-84
2022/07/22 12:56:25;;;;;;;22.07;15.60;;;;;;;;;;5110411;28;20348;-86
2022/07/22 12:58:52;;;;;;;22.17;15.30;;;;;;;;;;5109932;28;20411;-82
2022/07/22 13:01:19;;;;;;;19.58;14.23;;;;;;;;;;5110297;28;20447;-84
2022/07/22 13:03:46;;;;;;;24.08;15.45;;;;;;;;;;5110083;28;20438;-84
2022/07/22 13:06:16;;;;;;;27.55;16.83;;;;;;;;;;5099066;28;20409;-85
2022/07/22 13:08:43;;;;;;;25.95;16.80;;;;;;;;;;5095308;28;20357;-88
2022/07/22 13:11:10;;;;;;;26.17;17.05;;;;;;;;;;5097019;28;20368;-83
2022/07/22 13:13:37;;;;;;;23.75;15.98;;;;;;;;;;5096502;28;20375;-89
2022/07/22 13:16:04;;;;;;;29.58;20.42;;;;;;;;;;5097020;28;20890;-89
2022/07/22 13:18:31;;;;;;;25.00;18.35;;;;;;;;;;5096588;28;20886;-89
2022/07/22 13:20:58;;;;;;;29.73;19.35;;;;;;;;;;5096483;28;20369;-88
2022/07/22 13:23:25;;;;;;;28.35;19.00;;;;;;;;;;5095839;28;20367;-87
2022/07/22 13:25:52;;;;;;;27.42;18.13;;;;;;;;;;5095125;28;20812;-88
2022/07/22 13:28:21;;;;;;;25.60;17.33;;;;;;;;;;5093700;28;20372;-87
2022/07/22 13:30:48;;;;;;;23.15;17.15;;;;;;;;;;5093308;28;20799;-87
2022/07/22 13:33:16;;;;;;;22.45;15.30;;;;;;;;;;5094197;28;20391;-83
2022/07/22 13:35:43;;;;;;;20.88;13.85;;;;;;;;;;5093840;28;20379;-83
2022/07/22 13:38:11;;;;;;;24.02;13.90;;;;;;;;;;5094302;28;20381;-82
2022/07/22 13:40:38;;;;;;;20.58;12.38;;;;;;;;;;5094803;28;20383;-82
2022/07/22 13:43:05;;;;;;;22.00;12.02;;;;;;;;;;5094496;28;20538;-88
2022/07/22 13:45:33;;;;;;;16.17;10.40;;;;;;;;;;5093858;28;20400;-89
2022/07/22 13:48:00;;;;;;;20.10;9.90;;;;;;;;;;5094442;28;20383;-83
2022/07/22 13:50:27;;;;;;;17.05;9.88;;;;;;;;;;5094863;28;20478;-89
2022/07/22 13:52:54;;;;;;;18.77;9.90;;;;;;;;;;5093939;28;20740;-82
2022/07/22 13:55:21;;;;;;;15.05;8.63;;;;;;;;;;5094486;28;20848;-84
2022/07/22 13:57:49;;;;;;;17.35;8.90;;;;;;;;;;5094441;28;20383;-90
2022/07/22 14:00:16;;;;;;;20.83;9.70;;;;;;;;;;5093866;28;20373;-89
2022/07/22 14:02:46;;;;;;;19.73;11.10;;;;;;;;;;5094404;28;20728;-87
2022/07/22 14:05:14;;;;;;;21.13;13.32;;;;;;;;;;5092707;28;20384;-87
2022/07/22 14:07:41;;;;;;;24.98;14.23;;;;;;;;;;5094723;28;20377;-88